createdAt,value
2017-12-17T00:01:16.647Z,100742.13
2017-12-17T00:03:44.232Z,100755.70
2017-12-17T00:06:11.867Z,100754.17
2017-12-17T00:08:39.566Z,100755.55
2017-12-17T00:11:07.986Z,100758.86
2017-12-17T00:13:35.557Z,100761.87
2017-12-17T00:16:03.138Z,100762.15
2017-12-17T00:18:30.715Z,100757.50
2017-12-17T00:20:59.279Z,100770.49
2017-12-17T00:23:27.634Z,100772.39
2017-12-17T00:25:55.995Z,100772.34
2017-12-17T00:28:23.581Z,100769.78
2017-12-17T00:30:51.300Z,100770.78
2017-12-17T00:33:19.660Z,100776.42
2017-12-17T00:35:47.235Z,100779.75
2017-12-17T00:38:14.867Z,100786.98
2017-12-17T00:40:42.446Z,100787.41
2017-12-17T00:43:10.123Z,100789.22
2017-12-17T00:45:38.676Z,100779.73
2017-12-17T00:48:07.582Z,100781.72
2017-12-17T00:50:35.159Z,100776.00
2017-12-17T00:53:02.775Z,100789.98
2017-12-17T00:55:30.352Z,100780.92
2017-12-17T00:57:57.935Z,100789.84
2017-12-17T01:00:25.575Z,100791.47
2017-12-17T01:02:53.964Z,100790.55
2017-12-17T01:05:21.670Z,100797.80
2017-12-17T01:07:49.249Z,100796.28
2017-12-17T01:10:16.860Z,100797.33
2017-12-17T01:12:44.435Z,100798.80
2017-12-17T01:15:12.022Z,100799.69
2017-12-17T01:17:39.595Z,100802.17
2017-12-17T01:20:07.203Z,100794.77
2017-12-17T01:22:35.766Z,100801.09
2017-12-17T01:25:03.384Z,100798.45
2017-12-17T01:27:30.954Z,100798.55
2017-12-17T01:29:58.555Z,100795.47
2017-12-17T01:32:26.400Z,100807.52
2017-12-17T01:34:54.802Z,100806.52
2017-12-17T01:37:22.378Z,100799.37
2017-12-17T01:39:50.858Z,100808.47
2017-12-17T01:42:19.046Z,100806.80
2017-12-17T01:44:47.600Z,100812.38
2017-12-17T01:47:15.180Z,100813.23
2017-12-17T01:49:43.536Z,100816.39
2017-12-17T01:52:11.834Z,100815.73
2017-12-17T01:54:39.412Z,100820.59
2017-12-17T01:57:06.988Z,100831.59
2017-12-17T01:59:35.459Z,100822.33
2017-12-17T02:02:03.024Z,100823.91
2017-12-17T02:04:30.596Z,100831.91
2017-12-17T02:06:58.171Z,100831.45
2017-12-17T02:09:30.143Z,100828.68
2017-12-17T02:11:57.730Z,100832.33
2017-12-17T02:14:25.303Z,100833.14
2017-12-17T02:16:52.919Z,100835.73
2017-12-17T02:19:20.494Z,100844.79
2017-12-17T02:21:48.072Z,100853.28
2017-12-17T02:24:15.650Z,100842.17
2017-12-17T02:26:43.231Z,100854.38
2017-12-17T02:29:10.806Z,100842.31
2017-12-17T02:31:38.375Z,100842.73
2017-12-17T02:34:05.947Z,100849.19
2017-12-17T02:36:33.521Z,100848.16
2017-12-17T02:39:01.835Z,100854.22
2017-12-17T02:41:29.407Z,100857.55
2017-12-17T02:43:56.988Z,100856.25
2017-12-17T02:46:24.555Z,100858.81
2017-12-17T02:48:52.126Z,100860.81
2017-12-17T02:51:19.703Z,100859.27
2017-12-17T02:53:47.277Z,100855.22
2017-12-17T02:56:14.882Z,100858.27
2017-12-17T02:58:42.459Z,100852.03
2017-12-17T03:01:10.941Z,100853.41
2017-12-17T03:03:38.512Z,100847.20
2017-12-17T03:06:06.089Z,100856.66
2017-12-17T03:08:33.653Z,100856.33
2017-12-17T03:11:01.350Z,100858.45
2017-12-17T03:13:28.948Z,100858.77
2017-12-17T03:15:56.554Z,100862.84
2017-12-17T03:18:24.224Z,100865.45
2017-12-17T03:20:51.835Z,100871.27
2017-12-17T03:23:19.411Z,100867.70
2017-12-17T03:25:46.988Z,100874.80
2017-12-17T03:28:14.599Z,100876.72
2017-12-17T03:30:42.203Z,100864.89
2017-12-17T03:33:09.783Z,100871.60
2017-12-17T03:35:37.367Z,100868.31
2017-12-17T03:38:04.935Z,100867.69
2017-12-17T03:40:32.507Z,100870.12
2017-12-17T03:43:00.911Z,100870.78
2017-12-17T03:45:28.482Z,100875.44
2017-12-17T03:47:56.055Z,100881.61
2017-12-17T03:50:23.641Z,100889.25
2017-12-17T03:52:51.992Z,100885.91
2017-12-17T03:55:19.678Z,100888.31
2017-12-17T03:57:47.336Z,100892.26
2017-12-17T04:00:14.917Z,100901.56
2017-12-17T04:02:43.558Z,100902.25
2017-12-17T04:05:11.147Z,100905.89
2017-12-17T04:07:38.761Z,100905.16
2017-12-17T04:10:06.348Z,100914.05
2017-12-17T04:12:34.618Z,100913.70
2017-12-17T04:15:02.248Z,100894.77
2017-12-17T04:17:30.730Z,100906.84
2017-12-17T04:19:58.302Z,100906.58
2017-12-17T04:22:25.906Z,100905.82
2017-12-17T04:24:53.485Z,100912.73
2017-12-17T04:27:21.138Z,100911.00
2017-12-17T04:29:49.415Z,100915.20
2017-12-17T04:32:17.877Z,100912.09
2017-12-17T04:34:45.455Z,100916.33
2017-12-17T04:37:13.029Z,100915.20
2017-12-17T04:39:41.463Z,100915.46
2017-12-17T04:42:09.075Z,100923.80
2017-12-17T04:44:37.342Z,100924.50
2017-12-17T04:47:04.918Z,100923.83
2017-12-17T04:49:32.600Z,100938.44
2017-12-17T04:52:00.272Z,100935.95
2017-12-17T04:54:27.882Z,100936.70
2017-12-17T04:56:56.379Z,100943.07
2017-12-17T04:59:23.990Z,100944.37
2017-12-17T05:01:51.696Z,100950.65
2017-12-17T05:04:19.354Z,100944.06
2017-12-17T05:06:47.027Z,100950.14
2017-12-17T05:09:14.598Z,100947.46
2017-12-17T05:11:43.112Z,100956.00
2017-12-17T05:14:10.688Z,100954.34
2017-12-17T05:16:38.265Z,100948.55
2017-12-17T05:19:06.114Z,100950.83
2017-12-17T05:21:34.531Z,100975.28
2017-12-17T05:24:02.194Z,100983.64
2017-12-17T05:26:29.766Z,100976.49
2017-12-17T05:28:57.414Z,100985.77
2017-12-17T05:31:25.085Z,100992.63
2017-12-17T05:33:52.743Z,100998.70
2017-12-17T05:36:20.315Z,100999.64
2017-12-17T05:38:48.782Z,101001.78
2017-12-17T05:41:16.358Z,101001.52
2017-12-17T05:43:43.928Z,101004.77
2017-12-17T05:46:11.503Z,101011.62
2017-12-17T05:48:39.127Z,101016.23
2017-12-17T05:51:06.827Z,101019.25
2017-12-17T05:53:34.738Z,101027.30
2017-12-17T05:56:02.444Z,101027.98
2017-12-17T05:58:30.014Z,101030.22
2017-12-17T06:00:57.599Z,101037.96
2017-12-17T06:03:25.364Z,101033.09
2017-12-17T06:05:52.991Z,101033.23
2017-12-17T06:08:21.529Z,101032.59
2017-12-17T06:10:49.135Z,101035.00
2017-12-17T06:13:16.745Z,101036.48
2017-12-17T06:15:44.417Z,101032.13
2017-12-17T06:18:12.899Z,101028.70
2017-12-17T06:20:41.486Z,101037.64
2017-12-17T06:23:09.141Z,101034.15
2017-12-17T06:25:36.752Z,101037.72
2017-12-17T06:28:04.329Z,101042.09
2017-12-17T06:30:31.938Z,101045.09
2017-12-17T06:32:59.516Z,101048.91
2017-12-17T06:35:27.083Z,101052.33
2017-12-17T06:37:54.723Z,101049.19
2017-12-17T06:40:22.298Z,101042.47
2017-12-17T06:42:49.876Z,101046.38
2017-12-17T06:45:18.235Z,101046.97
2017-12-17T06:47:46.408Z,101054.44
2017-12-17T06:50:13.985Z,101058.73
2017-12-17T06:52:41.817Z,101056.08
2017-12-17T06:55:09.447Z,101055.85
2017-12-17T06:57:37.019Z,101065.23
2017-12-17T07:00:04.596Z,101065.38
2017-12-17T07:02:32.291Z,101073.64
2017-12-17T07:04:59.868Z,101074.83
2017-12-17T07:07:27.439Z,101081.85
2017-12-17T07:09:55.014Z,101088.50
2017-12-17T07:12:22.590Z,101089.79
2017-12-17T07:14:50.218Z,101095.80
2017-12-17T07:17:17.816Z,101092.95
2017-12-17T07:19:46.289Z,101093.16
2017-12-17T07:22:14.916Z,101101.47
2017-12-17T07:24:42.524Z,101107.77
2017-12-17T07:27:10.106Z,101100.75
2017-12-17T07:29:38.536Z,101109.12
2017-12-17T07:32:07.043Z,101112.78
2017-12-17T07:34:34.711Z,101122.06
2017-12-17T07:37:02.302Z,101123.78
2017-12-17T07:39:30.102Z,101128.83
2017-12-17T07:41:57.757Z,101139.02
2017-12-17T07:44:26.081Z,101144.11
2017-12-17T07:46:54.493Z,101140.34
2017-12-17T07:49:23.122Z,101147.16
2017-12-17T07:51:51.865Z,101147.53
2017-12-17T07:54:20.781Z,101158.56
2017-12-17T07:56:50.387Z,101161.88
2017-12-17T07:59:18.739Z,101168.75
2017-12-17T08:01:46.523Z,101164.38
2017-12-17T08:04:14.215Z,101171.61
2017-12-17T08:06:41.848Z,101171.02
2017-12-17T08:12:12.617Z,101174.84
2017-12-17T08:14:40.284Z,101186.14
2017-12-17T08:17:08.831Z,101189.67
2017-12-17T08:19:36.552Z,101194.09
2017-12-17T08:22:04.213Z,101200.84
2017-12-17T08:24:31.856Z,101195.80
2017-12-17T08:26:59.473Z,101200.55
2017-12-17T08:29:27.230Z,101202.34
2017-12-17T08:31:54.960Z,101204.91
2017-12-17T08:34:22.605Z,101207.53
2017-12-17T08:36:51.107Z,101219.48
2017-12-17T08:39:18.688Z,101219.55
2017-12-17T08:41:47.346Z,101220.55
2017-12-17T08:44:15.858Z,101219.98
2017-12-17T08:46:44.435Z,101230.95
2017-12-17T08:49:12.901Z,101236.59
2017-12-17T08:51:40.545Z,101234.48
2017-12-17T08:54:08.238Z,101241.41
2017-12-17T08:56:35.835Z,101242.70
2017-12-17T08:59:03.511Z,101253.19
2017-12-17T09:01:31.194Z,101260.70
2017-12-17T09:03:58.771Z,101257.20
2017-12-17T09:06:26.343Z,101264.06
2017-12-17T09:08:54.168Z,101264.34
2017-12-17T09:11:21.743Z,101274.02
2017-12-17T09:13:50.107Z,101271.16
2017-12-17T09:16:17.694Z,101273.67
2017-12-17T09:18:45.380Z,101283.98
2017-12-17T09:21:12.950Z,101278.19
2017-12-17T09:23:41.460Z,101281.19
2017-12-17T09:26:09.971Z,101287.30
2017-12-17T09:28:37.626Z,101284.71
2017-12-17T09:31:05.240Z,101286.87
2017-12-17T09:33:33.718Z,101290.38
2017-12-17T09:36:01.488Z,101289.08
2017-12-17T09:38:29.987Z,101288.88
2017-12-17T09:40:58.399Z,101288.88
2017-12-17T09:43:26.814Z,101292.73
2017-12-17T09:45:55.383Z,101296.31
2017-12-17T09:48:24.326Z,101295.08
2017-12-17T09:50:52.022Z,101293.03
2017-12-17T09:53:19.650Z,101304.06
2017-12-17T09:55:47.278Z,101301.78
2017-12-17T09:58:14.915Z,101302.30
2017-12-17T10:00:42.487Z,101312.30
2017-12-17T10:03:10.136Z,101307.27
2017-12-17T10:05:37.729Z,101313.32
2017-12-17T10:08:05.413Z,101317.68
2017-12-17T10:10:33.123Z,101315.98
2017-12-17T10:13:00.824Z,101319.62
2017-12-17T10:15:30.631Z,101314.90
2017-12-17T10:17:58.264Z,101307.53
2017-12-17T10:20:25.879Z,101305.67
2017-12-17T10:22:53.590Z,101308.57
2017-12-17T10:25:22.177Z,101312.44
2017-12-17T10:27:49.754Z,101309.70
2017-12-17T10:30:17.395Z,101312.36
2017-12-17T10:35:18.770Z,101314.67
2017-12-17T10:37:46.363Z,101317.61
2017-12-17T10:40:14.172Z,101324.72
2017-12-17T10:42:41.959Z,101316.34
2017-12-17T10:45:10.478Z,101319.83
2017-12-17T10:47:38.063Z,101324.86
2017-12-17T10:50:05.667Z,101322.77
2017-12-17T10:52:33.259Z,101328.30
2017-12-17T10:55:00.993Z,101329.44
2017-12-17T10:57:29.474Z,101333.39
2017-12-17T10:59:58.462Z,101334.94
2017-12-17T11:02:26.955Z,101340.14
2017-12-17T11:04:54.572Z,101344.37
2017-12-17T11:07:23.520Z,101343.33
2017-12-17T11:09:51.202Z,101345.20
2017-12-17T11:12:18.780Z,101353.31
2017-12-17T11:14:46.445Z,101354.38
2017-12-17T11:17:14.107Z,101359.97
2017-12-17T11:19:42.281Z,101369.00
2017-12-17T11:22:10.028Z,101363.55
2017-12-17T11:24:37.606Z,101365.26
2017-12-17T11:27:05.220Z,101363.77
2017-12-17T11:29:32.922Z,101371.23
2017-12-17T11:32:00.538Z,101365.44
2017-12-17T11:34:28.119Z,101369.94
2017-12-17T11:36:55.732Z,101372.39
2017-12-17T11:39:23.302Z,101379.91
2017-12-17T11:41:50.930Z,101376.70
2017-12-17T11:44:18.546Z,101385.08
2017-12-17T11:46:46.220Z,101388.22
2017-12-17T11:49:13.929Z,101390.54
2017-12-17T11:51:41.499Z,101385.73
2017-12-17T11:54:09.070Z,101391.41
2017-12-17T11:56:36.647Z,101388.53
2017-12-17T11:59:04.261Z,101385.30
2017-12-17T12:01:31.834Z,101390.38
2017-12-17T12:04:00.226Z,101387.02
2017-12-17T12:06:27.835Z,101390.17
2017-12-17T12:08:55.654Z,101396.72
2017-12-17T12:11:23.223Z,101397.77
2017-12-17T12:13:51.699Z,101397.70
2017-12-17T12:16:19.383Z,101396.41
2017-12-17T12:18:47.887Z,101394.02
2017-12-17T12:21:17.011Z,101404.06
2017-12-17T12:23:44.604Z,101411.02
2017-12-17T12:26:12.339Z,101416.13
2017-12-17T12:28:40.827Z,101416.27
2017-12-17T12:31:08.487Z,101422.11
2017-12-17T12:33:36.114Z,101424.99
2017-12-17T12:36:08.898Z,101423.05
2017-12-17T12:38:37.252Z,101429.91
2017-12-17T12:41:05.523Z,101433.85
2017-12-17T12:43:33.100Z,101426.55
2017-12-17T12:46:00.683Z,101433.05
2017-12-17T12:48:28.263Z,101423.87
2017-12-17T12:50:55.840Z,101434.73
2017-12-17T12:53:23.507Z,101436.91
2017-12-17T12:55:51.113Z,101434.96
2017-12-17T12:58:19.507Z,101438.00
2017-12-17T13:00:47.105Z,101438.13
2017-12-17T13:03:14.722Z,101442.80
2017-12-17T13:05:42.295Z,101439.50
2017-12-17T13:08:09.919Z,101449.47
2017-12-17T13:10:37.725Z,101441.39
2017-12-17T13:13:05.302Z,101446.93
2017-12-17T13:15:33.030Z,101449.21
2017-12-17T13:18:02.246Z,101456.84
2017-12-17T13:20:30.384Z,101462.95
2017-12-17T13:22:58.026Z,101462.43
2017-12-17T13:25:25.599Z,101467.77
2017-12-17T13:27:53.172Z,101475.48
2017-12-17T13:30:20.820Z,101474.80
2017-12-17T13:32:48.526Z,101477.07
2017-12-17T13:35:16.889Z,101479.72
2017-12-17T13:37:45.424Z,101487.41
2017-12-17T13:40:14.967Z,101488.27
2017-12-17T13:42:42.591Z,101492.34
2017-12-17T13:45:10.166Z,101489.66
2017-12-17T13:47:37.815Z,101492.98
2017-12-17T13:50:05.384Z,101498.28
2017-12-17T13:52:32.957Z,101494.23
2017-12-17T13:55:00.603Z,101497.67
2017-12-17T13:57:28.223Z,101501.48
2017-12-17T13:59:55.795Z,101501.96
2017-12-17T14:02:23.378Z,101497.17
2017-12-17T14:04:51.663Z,101498.64
2017-12-17T14:07:20.030Z,101504.37
2017-12-17T14:09:47.612Z,101510.94
2017-12-17T14:12:15.186Z,101511.13
2017-12-17T14:14:43.714Z,101515.73
2017-12-17T14:17:11.294Z,101518.85
2017-12-17T14:19:38.981Z,101521.27
2017-12-17T14:22:06.785Z,101528.22
2017-12-17T14:24:34.461Z,101530.51
2017-12-17T14:27:02.941Z,101529.63
2017-12-17T14:29:31.426Z,101537.94
2017-12-17T14:31:59.083Z,101539.34
2017-12-17T14:34:26.672Z,101554.80
2017-12-17T14:36:54.255Z,101549.19
2017-12-17T14:39:22.383Z,101558.17
2017-12-17T14:41:49.959Z,101560.92
2017-12-17T14:44:17.646Z,101567.88
2017-12-17T14:46:45.235Z,101570.59
2017-12-17T14:49:12.808Z,101576.12
2017-12-17T14:51:40.393Z,101581.89
2017-12-17T14:54:07.971Z,101584.34
2017-12-17T14:56:35.759Z,101587.29
2017-12-17T14:59:03.336Z,101593.64
2017-12-17T15:01:30.994Z,101594.88
2017-12-17T15:03:58.566Z,101595.42
2017-12-17T15:06:26.140Z,101594.81
2017-12-17T15:08:53.720Z,101594.10
2017-12-17T15:11:21.343Z,101605.80
2017-12-17T15:13:49.052Z,101603.44
2017-12-17T15:16:16.622Z,101606.52
2017-12-17T15:18:45.104Z,101610.92
2017-12-17T15:21:12.686Z,101615.27
2017-12-17T15:23:40.263Z,101626.03
2017-12-17T15:26:07.848Z,101625.48
2017-12-17T15:28:35.421Z,101632.80
2017-12-17T15:31:02.998Z,101631.72
2017-12-17T15:33:30.573Z,101632.31
2017-12-17T15:35:58.143Z,101638.39
2017-12-17T15:38:25.718Z,101628.61
2017-12-17T15:40:53.301Z,101637.16
2017-12-17T15:43:20.873Z,101643.67
2017-12-17T15:45:48.443Z,101649.63
2017-12-17T15:48:16.012Z,101654.67
2017-12-17T15:50:43.619Z,101658.12
2017-12-17T15:53:11.182Z,101657.36
2017-12-17T15:55:38.746Z,101664.78
2017-12-17T15:58:07.347Z,101660.44
2017-12-17T16:00:34.919Z,101671.23
2017-12-17T16:03:02.599Z,101678.61
2017-12-17T16:05:30.226Z,101685.48
2017-12-17T16:07:57.803Z,101690.92
2017-12-17T16:10:25.447Z,101694.95
2017-12-17T16:12:53.116Z,101694.95
2017-12-17T16:15:20.699Z,101699.73
2017-12-17T16:17:48.290Z,101702.48
2017-12-17T16:20:16.981Z,101696.45
2017-12-17T16:22:44.586Z,101702.38
2017-12-17T16:25:12.160Z,101702.58
2017-12-17T16:27:39.721Z,101705.80
2017-12-17T16:30:07.291Z,101710.70
2017-12-17T16:32:34.963Z,101714.62
2017-12-17T16:35:02.612Z,101709.09
2017-12-17T16:37:30.187Z,101717.84
2017-12-17T16:39:57.831Z,101719.19
2017-12-17T16:42:25.412Z,101723.02
2017-12-17T16:44:52.995Z,101729.08
2017-12-17T16:47:20.576Z,101736.44
2017-12-17T16:49:48.174Z,101738.45
2017-12-17T16:52:15.746Z,101736.45
2017-12-17T16:54:48.111Z,101737.91
2017-12-17T16:57:15.821Z,101744.47
2017-12-17T16:59:43.440Z,101747.64
2017-12-17T17:02:11.030Z,101747.89
2017-12-17T17:04:38.662Z,101751.05
2017-12-17T17:07:06.261Z,101755.36
2017-12-17T17:09:33.845Z,101757.22
2017-12-17T17:12:01.426Z,101757.61
2017-12-17T17:14:28.999Z,101760.19
2017-12-17T17:16:56.665Z,101762.24
2017-12-17T17:19:24.305Z,101757.89
2017-12-17T17:21:51.900Z,101759.66
2017-12-17T17:24:19.480Z,101770.40
2017-12-17T17:26:47.071Z,101767.55
2017-12-17T17:29:14.651Z,101772.04
2017-12-17T17:31:42.284Z,101781.88
2017-12-17T17:34:09.859Z,101780.64
2017-12-17T17:36:37.938Z,101776.71
2017-12-17T17:39:05.515Z,101784.27
2017-12-17T17:41:33.088Z,101783.08
2017-12-17T17:44:00.660Z,101795.97
2017-12-17T17:46:28.331Z,101795.41
2017-12-17T17:48:57.174Z,101800.44
2017-12-17T17:51:24.778Z,101804.97
2017-12-17T17:53:52.363Z,101808.95
2017-12-17T17:56:20.031Z,101810.57
2017-12-17T17:58:47.627Z,101815.07
2017-12-17T18:01:15.308Z,101820.85
2017-12-17T18:03:42.886Z,101818.75
2017-12-17T18:06:10.462Z,101822.34
2017-12-17T18:08:38.051Z,101812.97
2017-12-17T18:11:05.686Z,101815.94
2017-12-17T18:13:33.362Z,101818.12
2017-12-17T18:16:01.815Z,101824.82
2017-12-17T18:18:30.224Z,101821.81
2017-12-17T18:20:57.891Z,101812.49
2017-12-17T18:23:25.673Z,101812.59
2017-12-17T18:25:53.248Z,101806.17
2017-12-17T18:28:20.848Z,101817.45
2017-12-17T18:30:48.515Z,101821.91
2017-12-17T18:33:16.136Z,101819.71
2017-12-17T18:35:43.731Z,101817.17
2017-12-17T18:38:11.307Z,101812.92
2017-12-17T18:40:38.960Z,101819.05
2017-12-17T18:43:06.615Z,101832.42
2017-12-17T18:45:34.283Z,101825.97
2017-12-17T18:48:01.879Z,101813.93
2017-12-17T18:50:29.467Z,101819.19
2017-12-17T18:52:57.041Z,101822.69
2017-12-17T18:55:24.617Z,101816.52
2017-12-17T18:57:52.292Z,101813.55
2017-12-17T19:00:19.862Z,101818.71
2017-12-17T19:02:47.451Z,101821.82
2017-12-17T19:05:15.020Z,101829.23
2017-12-17T19:07:42.615Z,101827.55
2017-12-17T19:10:10.191Z,101837.16
2017-12-17T19:12:37.857Z,101830.84
2017-12-17T19:15:05.487Z,101833.91
2017-12-17T19:17:33.070Z,101834.10
2017-12-17T19:20:00.751Z,101829.89
2017-12-17T19:22:28.338Z,101827.89
2017-12-17T19:24:55.910Z,101828.64
2017-12-17T19:27:23.523Z,101835.74
2017-12-17T19:29:52.166Z,101839.59
2017-12-17T19:32:19.774Z,101837.97
2017-12-17T19:34:47.542Z,101838.62
2017-12-17T19:37:15.814Z,101838.06
2017-12-17T19:39:44.335Z,101844.17
2017-12-17T19:42:12.854Z,101843.37
2017-12-17T19:44:40.454Z,101847.72
2017-12-17T19:47:08.049Z,101852.11
2017-12-17T19:49:35.678Z,101855.16
2017-12-17T19:52:03.308Z,101859.50
2017-12-17T19:54:30.995Z,101864.11
2017-12-17T19:56:58.655Z,101863.28
2017-12-17T19:59:26.318Z,101869.27
2017-12-17T20:01:54.016Z,101865.87
2017-12-17T20:04:21.616Z,101865.86
2017-12-17T20:06:49.258Z,101873.47
2017-12-17T20:09:16.832Z,101879.88
2017-12-17T20:11:44.406Z,101877.38
2017-12-17T20:14:11.985Z,101880.87
2017-12-17T20:16:39.555Z,101883.41
2017-12-17T20:19:08.069Z,101881.36
2017-12-17T20:21:35.644Z,101880.41
2017-12-17T20:24:03.217Z,101883.33
2017-12-17T20:26:30.805Z,101886.86
2017-12-17T20:28:58.378Z,101887.73
2017-12-17T20:31:26.070Z,101888.58
2017-12-17T20:33:53.639Z,101883.41
2017-12-17T20:36:21.242Z,101888.72
2017-12-17T20:38:48.819Z,101884.91
2017-12-17T20:41:16.400Z,101889.72
2017-12-17T20:43:48.547Z,101883.41
2017-12-17T20:46:16.130Z,101890.90
2017-12-17T20:48:44.553Z,101893.86
2017-12-17T20:51:12.947Z,101898.13
2017-12-17T20:53:41.367Z,101891.97
2017-12-17T20:56:09.779Z,101886.01
2017-12-17T20:58:37.370Z,101900.11
2017-12-17T21:01:04.963Z,101898.66
2017-12-17T21:03:32.548Z,101912.09
2017-12-17T21:06:00.124Z,101912.56
2017-12-17T21:08:27.747Z,101916.95
2017-12-17T21:10:55.388Z,101923.02
2017-12-17T21:13:22.971Z,101921.69
2017-12-17T21:15:50.551Z,101918.92
2017-12-17T21:18:18.130Z,101926.63
2017-12-17T21:20:46.633Z,101928.39
2017-12-17T21:23:14.245Z,101928.61
2017-12-17T21:25:41.945Z,101922.16
2017-12-17T21:28:10.323Z,101926.76
2017-12-17T21:30:37.899Z,101929.86
2017-12-17T21:33:05.466Z,101926.06
2017-12-17T21:35:33.985Z,101928.18
2017-12-17T21:38:02.550Z,101929.16
2017-12-17T21:40:31.552Z,101929.33
2017-12-17T21:43:00.276Z,101927.83
2017-12-17T21:45:27.999Z,101932.22
2017-12-17T21:47:56.737Z,101929.52
2017-12-17T21:50:24.501Z,101927.79
2017-12-17T21:52:52.579Z,101925.30
2017-12-17T21:55:20.240Z,101935.73
2017-12-17T21:57:48.037Z,101939.36
2017-12-17T22:00:16.646Z,101934.33
2017-12-17T22:02:44.913Z,101935.73
2017-12-17T22:05:12.588Z,101936.13
2017-12-17T22:07:43.552Z,101941.68
2017-12-17T22:10:11.180Z,101948.98
2017-12-17T22:12:39.187Z,101946.97
2017-12-17T22:15:07.277Z,101956.91
2017-12-17T22:17:34.981Z,101954.45
2017-12-17T22:20:02.977Z,101949.67
2017-12-17T22:22:30.572Z,101955.23
2017-12-17T22:24:58.152Z,101956.91
2017-12-17T22:27:26.357Z,101956.17
2017-12-17T22:29:54.994Z,101960.13
2017-12-17T22:32:22.723Z,101961.59
2017-12-17T22:34:50.802Z,101952.69
2017-12-17T22:37:19.001Z,101947.57
2017-12-17T22:39:52.083Z,101945.42
2017-12-17T22:42:21.938Z,101951.78
2017-12-17T22:44:51.065Z,101951.58
2017-12-17T22:47:20.664Z,101947.22
2017-12-17T22:49:48.378Z,101947.27
2017-12-17T22:52:16.023Z,101948.30
2017-12-17T22:54:43.607Z,101945.47
2017-12-17T22:57:11.179Z,101941.20
2017-12-17T22:59:39.492Z,101944.17
2017-12-17T23:02:07.257Z,101940.69
2017-12-17T23:04:35.794Z,101934.80
2017-12-17T23:07:04.138Z,101935.10
2017-12-17T23:09:32.555Z,101930.97
2017-12-17T23:12:00.967Z,101940.91
2017-12-17T23:14:28.546Z,101938.16
2017-12-17T23:16:56.206Z,101933.98
2017-12-17T23:19:23.780Z,101939.53
2017-12-17T23:21:51.351Z,101938.54
2017-12-17T23:24:18.920Z,101943.44
2017-12-17T23:26:46.499Z,101934.80
2017-12-17T23:29:14.076Z,101938.28
2017-12-17T23:31:41.721Z,101936.56
2017-12-17T23:34:09.318Z,101939.69
2017-12-17T23:36:36.944Z,101940.94
2017-12-17T23:39:04.512Z,101937.12
2017-12-17T23:41:32.143Z,101940.60
2017-12-17T23:43:59.763Z,101943.65
2017-12-17T23:46:27.344Z,101950.22
2017-12-17T23:48:54.947Z,101955.96
2017-12-17T23:51:22.565Z,101939.43
2017-12-17T23:53:50.171Z,101941.92
2017-12-17T23:56:17.789Z,101938.14
2017-12-17T23:58:45.367Z,101950.22
